sensor_id;sensor_type;location;lat;lon;timestamp;temperature;humidity
5796;DHT22;2924;51.458;7.046;2022-08-19T00:01:53;17.60;99.90
5796;DHT22;2924;51.458;7.046;2022-08-19T00:04:21;17.50;99.90
5796;DHT22;2924;51.458;7.046;2022-08-19T00:06:53;17.30;99.90
5796;DHT22;2924;51.458;7.046;2022-08-19T00:09:21;17.40;99.90
5796;DHT22;2924;51.458;7.046;2022-08-19T00:11:47;17.40;99.90
5796;DHT22;2924;51.458;7.046;2022-08-19T00:14:15;17.40;99.90
5796;DHT22;2924;51.458;7.046;2022-08-19T00:16:42;17.40;99.90
5796;DHT22;2924;51.458;7.046;2022-08-19T00:19:08;17.50;99.90
5796;DHT22;2924;51.458;7.046;2022-08-19T00:21:34;17.50;99.90
5796;DHT22;2924;51.458;7.046;2022-08-19T00:24:05;17.60;99.90
5796;DHT22;2924;51.458;7.046;2022-08-19T00:26:31;17.50;99.90
5796;DHT22;2924;51.458;7.046;2022-08-19T00:28:57;17.50;99.90
5796;DHT22;2924;51.458;7.046;2022-08-19T00:31:23;17.50;99.90
5796;DHT22;2924;51.458;7.046;2022-08-19T00:33:50;17.40;99.90
5796;DHT22;2924;51.458;7.046;2022-08-19T00:36:16;17.40;99.90
5796;DHT22;2924;51.458;7.046;2022-08-19T00:38:42;17.30;99.90
5796;DHT22;2924;51.458;7.046;2022-08-19T00:41:10;17.40;99.90
5796;DHT22;2924;51.458;7.046;2022-08-19T00:43:35;17.30;99.90
5796;DHT22;2924;51.458;7.046;2022-08-19T00:46:01;17.40;99.90
5796;DHT22;2924;51.458;7.046;2022-08-19T00:48:30;17.40;99.90
5796;DHT22;2924;51.458;7.046;2022-08-19T00:50:57;17.40;99.90
5796;DHT22;2924;51.458;7.046;2022-08-19T00:53:26;17.40;99.90
5796;DHT22;2924;51.458;7.046;2022-08-19T00:55:55;17.50;99.90
5796;DHT22;2924;51.458;7.046;2022-08-19T00:58:26;17.40;99.90
5796;DHT22;2924;51.458;7.046;2022-08-19T01:00:52;17.40;99.90
5796;DHT22;2924;51.458;7.046;2022-08-19T01:03:19;17.30;99.90
5796;DHT22;2924;51.458;7.046;2022-08-19T01:05:47;17.30;99.90
5796;DHT22;2924;51.458;7.046;2022-08-19T01:08:15;17.20;99.90
5796;DHT22;2924;51.458;7.046;2022-08-19T01:10:56;17.20;99.90
5796;DHT22;2924;51.458;7.046;2022-08-19T01:13:27;17.10;99.90
5796;DHT22;2924;51.458;7.046;2022-08-19T01:16:12;17.10;99.90
5796;DHT22;2924;51.458;7.046;2022-08-19T01:18:41;17.00;99.90
5796;DHT22;2924;51.458;7.046;2022-08-19T01:21:31;17.00;99.90
5796;DHT22;2924;51.458;7.046;2022-08-19T01:23:59;17.00;99.90
5796;DHT22;2924;51.458;7.046;2022-08-19T01:26:25;16.90;99.90
5796;DHT22;2924;51.458;7.046;2022-08-19T01:28:54;16.80;99.90
5796;DHT22;2924;51.458;7.046;2022-08-19T01:31:23;16.80;99.90
5796;DHT22;2924;51.458;7.046;2022-08-19T01:33:51;16.70;99.90
5796;DHT22;2924;51.458;7.046;2022-08-19T01:38:52;16.70;99.90
5796;DHT22;2924;51.458;7.046;2022-08-19T01:41:18;16.70;99.90
5796;DHT22;2924;51.458;7.046;2022-08-19T01:43:45;16.70;99.90
5796;DHT22;2924;51.458;7.046;2022-08-19T01:46:11;16.70;99.90
5796;DHT22;2924;51.458;7.046;2022-08-19T01:48:39;16.70;99.90
5796;DHT22;2924;51.458;7.046;2022-08-19T01:51:07;16.60;99.90
5796;DHT22;2924;51.458;7.046;2022-08-19T01:53:33;16.70;99.90
5796;DHT22;2924;51.458;7.046;2022-08-19T01:55:59;16.60;99.90
5796;DHT22;2924;51.458;7.046;2022-08-19T01:58:34;16.60;99.90
5796;DHT22;2924;51.458;7.046;2022-08-19T02:01:02;16.60;99.90
5796;DHT22;2924;51.458;7.046;2022-08-19T02:03:28;16.60;99.90
5796;DHT22;2924;51.458;7.046;2022-08-19T02:05:59;16.60;99.90
5796;DHT22;2924;51.458;7.046;2022-08-19T02:08:29;16.50;99.90
5796;DHT22;2924;51.458;7.046;2022-08-19T02:10:55;16.50;99.90
5796;DHT22;2924;51.458;7.046;2022-08-19T02:13:21;16.60;99.90
5796;DHT22;2924;51.458;7.046;2022-08-19T02:15:47;16.60;99.90
5796;DHT22;2924;51.458;7.046;2022-08-19T02:18:13;16.60;99.90
5796;DHT22;2924;51.458;7.046;2022-08-19T02:20:40;16.50;99.90
5796;DHT22;2924;51.458;7.046;2022-08-19T02:23:07;16.60;99.90
5796;DHT22;2924;51.458;7.046;2022-08-19T02:25:33;16.60;99.90
5796;DHT22;2924;51.458;7.046;2022-08-19T02:27:59;16.60;99.90
5796;DHT22;2924;51.458;7.046;2022-08-19T02:30:24;16.50;99.90
5796;DHT22;2924;51.458;7.046;2022-08-19T02:32:51;16.50;99.90
5796;DHT22;2924;51.458;7.046;2022-08-19T02:35:17;16.40;99.90
5796;DHT22;2924;51.458;7.046;2022-08-19T02:37:43;16.30;99.90
5796;DHT22;2924;51.458;7.046;2022-08-19T02:40:29;16.20;99.90
5796;DHT22;2924;51.458;7.046;2022-08-19T02:42:57;16.10;99.90
5796;DHT22;2924;51.458;7.046;2022-08-19T02:45:23;16.10;99.90
5796;DHT22;2924;51.458;7.046;2022-08-19T02:47:48;16.00;99.90
5796;DHT22;2924;51.458;7.046;2022-08-19T02:50:14;16.00;99.90
5796;DHT22;2924;51.458;7.046;2022-08-19T02:52:40;16.10;99.90
5796;DHT22;2924;51.458;7.046;2022-08-19T02:55:06;16.20;99.90
5796;DHT22;2924;51.458;7.046;2022-08-19T02:57:32;16.20;99.90
5796;DHT22;2924;51.458;7.046;2022-08-19T02:59:58;16.30;99.90
5796;DHT22;2924;51.458;7.046;2022-08-19T03:02:24;16.20;99.90
5796;DHT22;2924;51.458;7.046;2022-08-19T03:04:50;16.20;99.90
5796;DHT22;2924;51.458;7.046;2022-08-19T03:07:17;16.10;99.90
5796;DHT22;2924;51.458;7.046;2022-08-19T03:09:44;16.10;99.90
5796;DHT22;2924;51.458;7.046;2022-08-19T03:12:10;16.00;99.90
5796;DHT22;2924;51.458;7.046;2022-08-19T03:14:36;16.00;99.90
5796;DHT22;2924;51.458;7.046;2022-08-19T03:17:03;15.90;99.90
5796;DHT22;2924;51.458;7.046;2022-08-19T03:19:30;15.80;99.90
5796;DHT22;2924;51.458;7.046;2022-08-19T03:21:57;15.80;99.90
5796;DHT22;2924;51.458;7.046;2022-08-19T03:24:23;15.80;99.90
5796;DHT22;2924;51.458;7.046;2022-08-19T03:26:51;15.90;99.90
5796;DHT22;2924;51.458;7.046;2022-08-19T03:29:20;16.00;99.90
5796;DHT22;2924;51.458;7.046;2022-08-19T03:31:46;16.10;99.90
5796;DHT22;2924;51.458;7.046;2022-08-19T03:34:14;16.20;99.90
5796;DHT22;2924;51.458;7.046;2022-08-19T03:36:41;16.20;99.90
5796;DHT22;2924;51.458;7.046;2022-08-19T03:39:06;16.10;99.90
5796;DHT22;2924;51.458;7.046;2022-08-19T03:41:37;16.10;99.90
5796;DHT22;2924;51.458;7.046;2022-08-19T03:44:03;16.00;99.90
5796;DHT22;2924;51.458;7.046;2022-08-19T03:46:32;15.90;99.90
5796;DHT22;2924;51.458;7.046;2022-08-19T03:49:01;15.80;99.90
5796;DHT22;2924;51.458;7.046;2022-08-19T03:51:35;15.70;99.90
5796;DHT22;2924;51.458;7.046;2022-08-19T03:54:04;15.60;99.90
5796;DHT22;2924;51.458;7.046;2022-08-19T03:56:31;15.60;99.90
5796;DHT22;2924;51.458;7.046;2022-08-19T03:58:58;15.70;99.90
5796;DHT22;2924;51.458;7.046;2022-08-19T04:01:26;15.80;99.90
5796;DHT22;2924;51.458;7.046;2022-08-19T04:03:53;15.80;99.90
5796;DHT22;2924;51.458;7.046;2022-08-19T04:06:27;15.80;99.90
5796;DHT22;2924;51.458;7.046;2022-08-19T04:08:54;15.90;99.90
5796;DHT22;2924;51.458;7.046;2022-08-19T04:11:24;15.90;99.90
5796;DHT22;2924;51.458;7.046;2022-08-19T04:13:51;15.90;99.90
5796;DHT22;2924;51.458;7.046;2022-08-19T04:16:19;15.90;99.90
5796;DHT22;2924;51.458;7.046;2022-08-19T04:18:46;15.90;99.90
5796;DHT22;2924;51.458;7.046;2022-08-19T04:21:23;15.80;99.90
5796;DHT22;2924;51.458;7.046;2022-08-19T04:23:50;15.80;99.90
5796;DHT22;2924;51.458;7.046;2022-08-19T04:26:18;15.80;99.90
5796;DHT22;2924;51.458;7.046;2022-08-19T04:28:45;15.70;99.90
5796;DHT22;2924;51.458;7.046;2022-08-19T04:31:16;15.60;99.90
5796;DHT22;2924;51.458;7.046;2022-08-19T04:33:43;15.70;99.90
5796;DHT22;2924;51.458;7.046;2022-08-19T04:36:18;15.60;99.90
5796;DHT22;2924;51.458;7.046;2022-08-19T04:38:46;15.70;99.90
5796;DHT22;2924;51.458;7.046;2022-08-19T04:41:13;15.70;99.90
5796;DHT22;2924;51.458;7.046;2022-08-19T04:43:57;15.90;99.90
5796;DHT22;2924;51.458;7.046;2022-08-19T04:46:23;16.00;99.90
5796;DHT22;2924;51.458;7.046;2022-08-19T04:48:49;16.10;99.90
5796;DHT22;2924;51.458;7.046;2022-08-19T04:51:14;16.20;99.90
5796;DHT22;2924;51.458;7.046;2022-08-19T04:53:41;16.20;99.90
5796;DHT22;2924;51.458;7.046;2022-08-19T04:56:15;16.30;99.90
5796;DHT22;2924;51.458;7.046;2022-08-19T04:58:44;16.20;99.90
5796;DHT22;2924;51.458;7.046;2022-08-19T05:01:17;16.20;99.90
5796;DHT22;2924;51.458;7.046;2022-08-19T05:03:43;16.10;99.90
5796;DHT22;2924;51.458;7.046;2022-08-19T05:06:11;16.10;99.90
5796;DHT22;2924;51.458;7.046;2022-08-19T05:08:38;16.10;99.90
5796;DHT22;2924;51.458;7.046;2022-08-19T05:11:19;16.10;99.90
5796;DHT22;2924;51.458;7.046;2022-08-19T05:13:46;16.10;99.90
5796;DHT22;2924;51.458;7.046;2022-08-19T05:16:14;16.00;99.90
5796;DHT22;2924;51.458;7.046;2022-08-19T05:18:40;16.00;99.90
5796;DHT22;2924;51.458;7.046;2022-08-19T05:21:25;16.00;99.90
5796;DHT22;2924;51.458;7.046;2022-08-19T05:24:10;16.10;99.90
5796;DHT22;2924;51.458;7.046;2022-08-19T05:26:37;16.10;99.90
5796;DHT22;2924;51.458;7.046;2022-08-19T05:29:04;16.30;99.90
5796;DHT22;2924;51.458;7.046;2022-08-19T05:31:30;16.40;99.90
5796;DHT22;2924;51.458;7.046;2022-08-19T05:33:56;16.50;99.90
5796;DHT22;2924;51.458;7.046;2022-08-19T05:36:27;16.60;99.90
5796;DHT22;2924;51.458;7.046;2022-08-19T05:38:54;16.80;99.90
5796;DHT22;2924;51.458;7.046;2022-08-19T05:41:21;17.00;99.90
5796;DHT22;2924;51.458;7.046;2022-08-19T05:44:02;17.20;99.90
5796;DHT22;2924;51.458;7.046;2022-08-19T05:46:28;17.40;99.90
5796;DHT22;2924;51.458;7.046;2022-08-19T05:48:54;17.60;99.90
5796;DHT22;2924;51.458;7.046;2022-08-19T05:51:23;17.70;99.90
5796;DHT22;2924;51.458;7.046;2022-08-19T05:53:49;17.80;99.90
5796;DHT22;2924;51.458;7.046;2022-08-19T05:56:16;17.90;99.90
5796;DHT22;2924;51.458;7.046;2022-08-19T05:58:44;18.00;99.90
5796;DHT22;2924;51.458;7.046;2022-08-19T06:01:13;18.00;99.90
5796;DHT22;2924;51.458;7.046;2022-08-19T06:03:39;18.10;99.90
5796;DHT22;2924;51.458;7.046;2022-08-19T06:06:07;18.20;99.90
5796;DHT22;2924;51.458;7.046;2022-08-19T06:08:34;18.30;99.90
5796;DHT22;2924;51.458;7.046;2022-08-19T06:13:39;18.80;99.90
5796;DHT22;2924;51.458;7.046;2022-08-19T06:16:04;19.00;99.90
5796;DHT22;2924;51.458;7.046;2022-08-19T06:18:30;19.20;99.90
5796;DHT22;2924;51.458;7.046;2022-08-19T06:20:56;19.60;99.90
5796;DHT22;2924;51.458;7.046;2022-08-19T06:23:22;19.90;99.90
5796;DHT22;2924;51.458;7.046;2022-08-19T06:25:47;20.20;99.90
5796;DHT22;2924;51.458;7.046;2022-08-19T06:28:13;20.60;99.90
5796;DHT22;2924;51.458;7.046;2022-08-19T06:30:39;21.00;99.90
5796;DHT22;2924;51.458;7.046;2022-08-19T06:33:04;21.30;99.90
5796;DHT22;2924;51.458;7.046;2022-08-19T06:35:30;21.50;99.90
5796;DHT22;2924;51.458;7.046;2022-08-19T06:37:56;21.60;99.90
5796;DHT22;2924;51.458;7.046;2022-08-19T06:40:21;21.60;99.90
5796;DHT22;2924;51.458;7.046;2022-08-19T06:42:47;21.60;99.90
5796;DHT22;2924;51.458;7.046;2022-08-19T06:45:13;21.50;99.90
5796;DHT22;2924;51.458;7.046;2022-08-19T06:47:40;21.40;99.90
5796;DHT22;2924;51.458;7.046;2022-08-19T06:50:09;21.30;99.90
5796;DHT22;2924;51.458;7.046;2022-08-19T06:52:35;21.30;99.90
5796;DHT22;2924;51.458;7.046;2022-08-19T06:55:02;21.20;99.90
5796;DHT22;2924;51.458;7.046;2022-08-19T06:57:28;21.10;99.90
5796;DHT22;2924;51.458;7.046;2022-08-19T06:59:58;21.10;99.90
5796;DHT22;2924;51.458;7.046;2022-08-19T07:02:25;21.30;99.90
5796;DHT22;2924;51.458;7.046;2022-08-19T07:04:52;21.40;99.90
5796;DHT22;2924;51.458;7.046;2022-08-19T07:07:18;21.70;99.90
5796;DHT22;2924;51.458;7.046;2022-08-19T07:09:45;22.00;99.90
5796;DHT22;2924;51.458;7.046;2022-08-19T07:12:13;22.60;99.90
5796;DHT22;2924;51.458;7.046;2022-08-19T07:14:42;23.20;99.90
5796;DHT22;2924;51.458;7.046;2022-08-19T07:17:10;23.70;99.90
5796;DHT22;2924;51.458;7.046;2022-08-19T07:19:38;24.50;99.90
5796;DHT22;2924;51.458;7.046;2022-08-19T07:22:05;25.00;99.90
5796;DHT22;2924;51.458;7.046;2022-08-19T07:24:32;25.30;99.90
5796;DHT22;2924;51.458;7.046;2022-08-19T07:27:00;25.60;99.90
5796;DHT22;2924;51.458;7.046;2022-08-19T07:29:29;26.00;99.90
5796;DHT22;2924;51.458;7.046;2022-08-19T07:31:56;26.20;99.90
5796;DHT22;2924;51.458;7.046;2022-08-19T07:34:24;26.30;99.90
5796;DHT22;2924;51.458;7.046;2022-08-19T07:36:51;26.30;99.90
5796;DHT22;2924;51.458;7.046;2022-08-19T07:39:20;26.20;99.90
5796;DHT22;2924;51.458;7.046;2022-08-19T07:41:47;26.00;99.90
5796;DHT22;2924;51.458;7.046;2022-08-19T07:44:14;25.80;99.90
5796;DHT22;2924;51.458;7.046;2022-08-19T07:46:45;25.60;99.90
5796;DHT22;2924;51.458;7.046;2022-08-19T07:49:12;25.50;99.90
5796;DHT22;2924;51.458;7.046;2022-08-19T07:51:44;25.40;99.90
5796;DHT22;2924;51.458;7.046;2022-08-19T07:54:10;25.40;99.90
5796;DHT22;2924;51.458;7.046;2022-08-19T07:56:37;25.30;99.90
5796;DHT22;2924;51.458;7.046;2022-08-19T07:59:02;25.40;99.90
5796;DHT22;2924;51.458;7.046;2022-08-19T08:01:28;25.30;99.90
5796;DHT22;2924;51.458;7.046;2022-08-19T08:03:56;25.20;99.90
5796;DHT22;2924;51.458;7.046;2022-08-19T08:06:40;25.20;99.90
5796;DHT22;2924;51.458;7.046;2022-08-19T08:09:29;25.30;99.90
5796;DHT22;2924;51.458;7.046;2022-08-19T08:11:58;25.50;99.90
5796;DHT22;2924;51.458;7.046;2022-08-19T08:14:32;25.50;99.90
5796;DHT22;2924;51.458;7.046;2022-08-19T08:16:58;25.60;99.90
5796;DHT22;2924;51.458;7.046;2022-08-19T08:19:25;26.00;99.90
5796;DHT22;2924;51.458;7.046;2022-08-19T08:21:55;26.20;99.90
5796;DHT22;2924;51.458;7.046;2022-08-19T08:24:21;26.30;99.90
5796;DHT22;2924;51.458;7.046;2022-08-19T08:26:46;26.40;99.90
5796;DHT22;2924;51.458;7.046;2022-08-19T08:29:13;26.80;99.90
5796;DHT22;2924;51.458;7.046;2022-08-19T08:31:42;27.50;99.90
5796;DHT22;2924;51.458;7.046;2022-08-19T08:34:10;28.60;99.90
5796;DHT22;2924;51.458;7.046;2022-08-19T08:36:44;29.60;99.90
5796;DHT22;2924;51.458;7.046;2022-08-19T08:39:17;30.60;99.90
5796;DHT22;2924;51.458;7.046;2022-08-19T08:44:40;31.50;98.50
5796;DHT22;2924;51.458;7.046;2022-08-19T08:47:15;32.00;97.80
5796;DHT22;2924;51.458;7.046;2022-08-19T08:49:56;32.40;96.40
5796;DHT22;2924;51.458;7.046;2022-08-19T08:52:31;32.50;95.30
5796;DHT22;2924;51.458;7.046;2022-08-19T08:55:05;32.30;95.30
5796;DHT22;2924;51.458;7.046;2022-08-19T08:57:39;32.30;95.00
5796;DHT22;2924;51.458;7.046;2022-08-19T09:00:10;32.30;94.70
5796;DHT22;2924;51.458;7.046;2022-08-19T09:02:38;32.10;94.90
5796;DHT22;2924;51.458;7.046;2022-08-19T09:05:04;32.40;95.00
5796;DHT22;2924;51.458;7.046;2022-08-19T09:08:00;32.70;94.00
5796;DHT22;2924;51.458;7.046;2022-08-19T09:10:38;32.80;93.70
5796;DHT22;2924;51.458;7.046;2022-08-19T09:13:17;33.20;93.20
5796;DHT22;2924;51.458;7.046;2022-08-19T09:16:02;33.00;92.90
5796;DHT22;2924;51.458;7.046;2022-08-19T09:18:49;32.80;93.20
5796;DHT22;2924;51.458;7.046;2022-08-19T09:21:19;32.80;93.10
5796;DHT22;2924;51.458;7.046;2022-08-19T09:23:46;32.40;93.10
5796;DHT22;2924;51.458;7.046;2022-08-19T09:26:15;31.90;93.20
5796;DHT22;2924;51.458;7.046;2022-08-19T09:28:42;31.50;93.60
5796;DHT22;2924;51.458;7.046;2022-08-19T09:31:13;31.70;93.70
5796;DHT22;2924;51.458;7.046;2022-08-19T09:33:39;31.80;93.40
5796;DHT22;2924;51.458;7.046;2022-08-19T09:36:11;31.50;93.60
5796;DHT22;2924;51.458;7.046;2022-08-19T09:38:38;31.10;93.60
5796;DHT22;2924;51.458;7.046;2022-08-19T09:41:13;31.00;93.90
5796;DHT22;2924;51.458;7.046;2022-08-19T09:43:40;31.50;94.10
5796;DHT22;2924;51.458;7.046;2022-08-19T09:46:07;32.40;93.00
5796;DHT22;2924;51.458;7.046;2022-08-19T09:48:35;32.80;92.00
5796;DHT22;2924;51.458;7.046;2022-08-19T09:51:05;33.10;91.50
5796;DHT22;2924;51.458;7.046;2022-08-19T09:53:31;32.90;90.90
5796;DHT22;2924;51.458;7.046;2022-08-19T09:55:57;32.50;91.40
5796;DHT22;2924;51.458;7.046;2022-08-19T09:58:23;32.70;91.30
5796;DHT22;2924;51.458;7.046;2022-08-19T10:00:54;32.80;91.30
5796;DHT22;2924;51.458;7.046;2022-08-19T10:03:19;32.50;91.20
5796;DHT22;2924;51.458;7.046;2022-08-19T10:05:45;32.40;91.40
5796;DHT22;2924;51.458;7.046;2022-08-19T10:08:25;32.50;91.50
5796;DHT22;2924;51.458;7.046;2022-08-19T10:10:52;32.90;91.30
5796;DHT22;2924;51.458;7.046;2022-08-19T10:13:20;33.70;90.90
5796;DHT22;2924;51.458;7.046;2022-08-19T10:15:52;34.20;90.00
5796;DHT22;2924;51.458;7.046;2022-08-19T10:18:19;34.50;89.90
5796;DHT22;2924;51.458;7.046;2022-08-19T10:20:47;34.00;90.00
5796;DHT22;2924;51.458;7.046;2022-08-19T10:23:14;33.60;90.20
5796;DHT22;2924;51.458;7.046;2022-08-19T10:25:41;33.80;90.10
5796;DHT22;2924;51.458;7.046;2022-08-19T10:28:07;34.20;89.80
5796;DHT22;2924;51.458;7.046;2022-08-19T10:30:34;33.80;89.60
5796;DHT22;2924;51.458;7.046;2022-08-19T10:33:00;33.70;89.40
5796;DHT22;2924;51.458;7.046;2022-08-19T10:35:26;33.60;90.10
5796;DHT22;2924;51.458;7.046;2022-08-19T10:37:55;33.80;89.70
5796;DHT22;2924;51.458;7.046;2022-08-19T10:40:26;34.10;89.00
5796;DHT22;2924;51.458;7.046;2022-08-19T10:42:53;34.10;89.10
5796;DHT22;2924;51.458;7.046;2022-08-19T10:45:19;33.50;88.60
5796;DHT22;2924;51.458;7.046;2022-08-19T10:47:47;33.20;89.20
5796;DHT22;2924;51.458;7.046;2022-08-19T10:50:13;32.70;89.20
5796;DHT22;2924;51.458;7.046;2022-08-19T10:53:03;32.20;89.80
5796;DHT22;2924;51.458;7.046;2022-08-19T10:55:28;31.80;90.40
5796;DHT22;2924;51.458;7.046;2022-08-19T10:58:14;31.40;90.50
5796;DHT22;2924;51.458;7.046;2022-08-19T11:00:41;31.30;90.70
5796;DHT22;2924;51.458;7.046;2022-08-19T11:03:08;31.40;90.60
5796;DHT22;2924;51.458;7.046;2022-08-19T11:05:33;31.90;90.30
5796;DHT22;2924;51.458;7.046;2022-08-19T11:07:59;32.40;90.00
5796;DHT22;2924;51.458;7.046;2022-08-19T11:10:25;33.10;89.50
5796;DHT22;2924;51.458;7.046;2022-08-19T11:12:51;33.80;89.10
5796;DHT22;2924;51.458;7.046;2022-08-19T11:15:20;34.50;87.20
5796;DHT22;2924;51.458;7.046;2022-08-19T11:17:46;34.10;87.30
5796;DHT22;2924;51.458;7.046;2022-08-19T11:20:13;33.70;87.20
5796;DHT22;2924;51.458;7.046;2022-08-19T11:22:40;33.00;88.20
5796;DHT22;2924;51.458;7.046;2022-08-19T11:25:07;32.90;88.60
5796;DHT22;2924;51.458;7.046;2022-08-19T11:27:33;33.20;89.20
5796;DHT22;2924;51.458;7.046;2022-08-19T11:29:59;33.20;87.70
5796;DHT22;2924;51.458;7.046;2022-08-19T11:32:26;33.20;87.40
5796;DHT22;2924;51.458;7.046;2022-08-19T11:34:52;33.30;86.40
5796;DHT22;2924;51.458;7.046;2022-08-19T11:37:18;33.50;86.10
5796;DHT22;2924;51.458;7.046;2022-08-19T11:39:44;33.80;85.70
5796;DHT22;2924;51.458;7.046;2022-08-19T11:42:09;34.10;85.80
5796;DHT22;2924;51.458;7.046;2022-08-19T11:44:54;34.30;85.70
5796;DHT22;2924;51.458;7.046;2022-08-19T11:47:20;34.60;85.30
5796;DHT22;2924;51.458;7.046;2022-08-19T11:49:47;34.30;84.80
5796;DHT22;2924;51.458;7.046;2022-08-19T11:52:13;34.10;84.90
5796;DHT22;2924;51.458;7.046;2022-08-19T11:54:38;34.10;84.70
5796;DHT22;2924;51.458;7.046;2022-08-19T11:57:04;34.10;83.80
5796;DHT22;2924;51.458;7.046;2022-08-19T11:59:30;34.10;84.30
5796;DHT22;2924;51.458;7.046;2022-08-19T12:01:56;34.30;84.20
5796;DHT22;2924;51.458;7.046;2022-08-19T12:04:22;34.10;83.20
5796;DHT22;2924;51.458;7.046;2022-08-19T12:06:48;33.40;83.80
5796;DHT22;2924;51.458;7.046;2022-08-19T12:09:15;33.00;84.80
5796;DHT22;2924;51.458;7.046;2022-08-19T12:11:42;32.60;85.30
5796;DHT22;2924;51.458;7.046;2022-08-19T12:14:12;32.60;85.40
5796;DHT22;2924;51.458;7.046;2022-08-19T12:16:39;33.20;85.00
5796;DHT22;2924;51.458;7.046;2022-08-19T12:19:06;33.70;84.40
5796;DHT22;2924;51.458;7.046;2022-08-19T12:21:34;33.80;84.00
5796;DHT22;2924;51.458;7.046;2022-08-19T12:24:02;34.10;83.50
5796;DHT22;2924;51.458;7.046;2022-08-19T12:26:29;34.30;83.30
5796;DHT22;2924;51.458;7.046;2022-08-19T12:28:57;34.60;82.60
5796;DHT22;2924;51.458;7.046;2022-08-19T12:31:25;34.90;82.00
5796;DHT22;2924;51.458;7.046;2022-08-19T12:33:51;34.90;81.60
5796;DHT22;2924;51.458;7.046;2022-08-19T12:36:18;34.80;81.40
5796;DHT22;2924;51.458;7.046;2022-08-19T12:38:44;34.90;81.50
5796;DHT22;2924;51.458;7.046;2022-08-19T12:41:14;35.10;81.60
5796;DHT22;2924;51.458;7.046;2022-08-19T12:43:40;35.30;79.60
5796;DHT22;2924;51.458;7.046;2022-08-19T12:46:08;34.90;79.40
5796;DHT22;2924;51.458;7.046;2022-08-19T12:48:34;34.20;80.30
5796;DHT22;2924;51.458;7.046;2022-08-19T12:51:01;34.10;81.00
5796;DHT22;2924;51.458;7.046;2022-08-19T12:53:30;34.00;81.30
5796;DHT22;2924;51.458;7.046;2022-08-19T12:55:57;33.70;81.20
5796;DHT22;2924;51.458;7.046;2022-08-19T12:58:25;33.90;81.20
5796;DHT22;2924;51.458;7.046;2022-08-19T13:00:51;34.20;80.30
5796;DHT22;2924;51.458;7.046;2022-08-19T13:03:17;33.90;80.10
5796;DHT22;2924;51.458;7.046;2022-08-19T13:05:43;33.60;81.50
5796;DHT22;2924;51.458;7.046;2022-08-19T13:08:08;33.60;80.20
5796;DHT22;2924;51.458;7.046;2022-08-19T13:10:35;33.70;80.40
5796;DHT22;2924;51.458;7.046;2022-08-19T13:13:04;34.10;79.50
5796;DHT22;2924;51.458;7.046;2022-08-19T13:15:34;34.40;79.20
5796;DHT22;2924;51.458;7.046;2022-08-19T13:18:00;34.70;78.70
5796;DHT22;2924;51.458;7.046;2022-08-19T13:20:26;34.90;78.20
5796;DHT22;2924;51.458;7.046;2022-08-19T13:22:51;34.90;77.70
5796;DHT22;2924;51.458;7.046;2022-08-19T13:25:17;34.40;77.60
5796;DHT22;2924;51.458;7.046;2022-08-19T13:27:45;33.60;79.00
5796;DHT22;2924;51.458;7.046;2022-08-19T13:30:13;32.90;79.40
5796;DHT22;2924;51.458;7.046;2022-08-19T13:32:58;32.40;80.40
5796;DHT22;2924;51.458;7.046;2022-08-19T13:35:51;32.00;80.90
5796;DHT22;2924;51.458;7.046;2022-08-19T13:38:21;31.50;81.30
5796;DHT22;2924;51.458;7.046;2022-08-19T13:40:48;31.40;81.70
5796;DHT22;2924;51.458;7.046;2022-08-19T13:43:16;31.80;81.70
5796;DHT22;2924;51.458;7.046;2022-08-19T13:45:42;32.30;81.10
5796;DHT22;2924;51.458;7.046;2022-08-19T13:48:08;32.80;80.00
5796;DHT22;2924;51.458;7.046;2022-08-19T13:50:38;33.20;79.50
5796;DHT22;2924;51.458;7.046;2022-08-19T13:53:05;33.40;78.90
5796;DHT22;2924;51.458;7.046;2022-08-19T13:55:31;33.60;78.70
5796;DHT22;2924;51.458;7.046;2022-08-19T13:57:59;33.90;78.60
5796;DHT22;2924;51.458;7.046;2022-08-19T14:00:32;34.00;78.80
5796;DHT22;2924;51.458;7.046;2022-08-19T14:02:58;34.10;78.70
5796;DHT22;2924;51.458;7.046;2022-08-19T14:05:26;34.20;77.50
5796;DHT22;2924;51.458;7.046;2022-08-19T14:07:52;34.10;77.30
5796;DHT22;2924;51.458;7.046;2022-08-19T14:10:18;33.50;77.80
5796;DHT22;2924;51.458;7.046;2022-08-19T14:12:44;33.40;77.90
5796;DHT22;2924;51.458;7.046;2022-08-19T14:15:12;33.50;78.40
5796;DHT22;2924;51.458;7.046;2022-08-19T14:17:42;33.70;77.70
5796;DHT22;2924;51.458;7.046;2022-08-19T14:20:10;34.00;78.20
5796;DHT22;2924;51.458;7.046;2022-08-19T14:22:38;34.40;77.50
5796;DHT22;2924;51.458;7.046;2022-08-19T14:25:06;34.50;78.00
5796;DHT22;2924;51.458;7.046;2022-08-19T14:27:36;34.60;77.30
5796;DHT22;2924;51.458;7.046;2022-08-19T14:30:03;34.40;77.10
5796;DHT22;2924;51.458;7.046;2022-08-19T14:32:29;34.20;77.30
5796;DHT22;2924;51.458;7.046;2022-08-19T14:34:55;34.10;78.30
5796;DHT22;2924;51.458;7.046;2022-08-19T14:37:21;33.90;77.40
5796;DHT22;2924;51.458;7.046;2022-08-19T14:39:48;33.70;77.90
5796;DHT22;2924;51.458;7.046;2022-08-19T14:42:14;33.50;77.80
5796;DHT22;2924;51.458;7.046;2022-08-19T14:44:41;33.40;78.10
5796;DHT22;2924;51.458;7.046;2022-08-19T14:47:07;33.20;78.00
5796;DHT22;2924;51.458;7.046;2022-08-19T14:49:34;33.00;77.80
5796;DHT22;2924;51.458;7.046;2022-08-19T14:52:00;33.00;77.60
5796;DHT22;2924;51.458;7.046;2022-08-19T14:54:26;33.40;78.00
5796;DHT22;2924;51.458;7.046;2022-08-19T14:56:52;33.80;77.50
5796;DHT22;2924;51.458;7.046;2022-08-19T14:59:18;33.70;77.20
5796;DHT22;2924;51.458;7.046;2022-08-19T15:01:44;33.20;76.90
5796;DHT22;2924;51.458;7.046;2022-08-19T15:04:10;32.40;78.10
5796;DHT22;2924;51.458;7.046;2022-08-19T15:06:36;32.00;78.70
5796;DHT22;2924;51.458;7.046;2022-08-19T15:09:03;31.70;79.20
5796;DHT22;2924;51.458;7.046;2022-08-19T15:11:30;31.40;80.00
5796;DHT22;2924;51.458;7.046;2022-08-19T15:13:58;31.10;80.30
5796;DHT22;2924;51.458;7.046;2022-08-19T15:16:26;30.70;81.30
5796;DHT22;2924;51.458;7.046;2022-08-19T15:18:56;30.30;82.20
5796;DHT22;2924;51.458;7.046;2022-08-19T15:21:24;29.90;82.90
5796;DHT22;2924;51.458;7.046;2022-08-19T15:23:51;29.80;83.30
5796;DHT22;2924;51.458;7.046;2022-08-19T15:26:18;29.90;83.10
5796;DHT22;2924;51.458;7.046;2022-08-19T15:28:45;30.20;83.10
5796;DHT22;2924;51.458;7.046;2022-08-19T15:31:12;30.60;82.50
5796;DHT22;2924;51.458;7.046;2022-08-19T15:33:39;31.40;81.60
5796;DHT22;2924;51.458;7.046;2022-08-19T15:36:08;32.20;80.50
5796;DHT22;2924;51.458;7.046;2022-08-19T15:38:35;32.70;79.90
5796;DHT22;2924;51.458;7.046;2022-08-19T15:41:02;33.00;78.80
5796;DHT22;2924;51.458;7.046;2022-08-19T15:43:59;33.10;78.50
5796;DHT22;2924;51.458;7.046;2022-08-19T15:46:27;33.20;77.50
5796;DHT22;2924;51.458;7.046;2022-08-19T15:48:54;33.20;77.80
5796;DHT22;2924;51.458;7.046;2022-08-19T15:51:21;33.40;77.60
5796;DHT22;2924;51.458;7.046;2022-08-19T15:53:48;33.60;77.60
5796;DHT22;2924;51.458;7.046;2022-08-19T15:56:14;33.60;77.10
5796;DHT22;2924;51.458;7.046;2022-08-19T15:58:40;33.50;77.30
5796;DHT22;2924;51.458;7.046;2022-08-19T16:01:24;33.30;77.80
5796;DHT22;2924;51.458;7.046;2022-08-19T16:03:54;33.30;76.80
5796;DHT22;2924;51.458;7.046;2022-08-19T16:06:42;33.10;76.80
5796;DHT22;2924;51.458;7.046;2022-08-19T16:09:08;33.10;76.60
5796;DHT22;2924;51.458;7.046;2022-08-19T16:11:34;33.00;76.20
5796;DHT22;2924;51.458;7.046;2022-08-19T16:14:01;32.70;76.30
5796;DHT22;2924;51.458;7.046;2022-08-19T16:16:30;32.70;76.70
5796;DHT22;2924;51.458;7.046;2022-08-19T16:18:58;32.50;76.20